sensor_id;sensor_type;location;lat;lon;timestamp;temperature;humidity
72604;DHT22;60645;56.968;24.196;2024-01-25T00:00:42;4.10;99.90
72604;DHT22;60645;56.968;24.196;2024-01-25T00:03:09;4.10;99.90
72604;DHT22;60645;56.968;24.196;2024-01-25T00:05:36;4.00;99.90
72604;DHT22;60645;56.968;24.196;2024-01-25T00:08:03;4.10;99.90
72604;DHT22;60645;56.968;24.196;2024-01-25T00:10:30;4.00;99.90
72604;DHT22;60645;56.968;24.196;2024-01-25T00:12:56;4.10;99.90
72604;DHT22;60645;56.968;24.196;2024-01-25T00:15:23;4.10;99.90
72604;DHT22;60645;56.968;24.196;2024-01-25T00:17:50;4.10;99.90
72604;DHT22;60645;56.968;24.196;2024-01-25T00:20:17;4.10;99.90
72604;DHT22;60645;56.968;24.196;2024-01-25T00:22:44;3.80;99.90
72604;DHT22;60645;56.968;24.196;2024-01-25T00:25:11;4.00;99.90
72604;DHT22;60645;56.968;24.196;2024-01-25T00:27:38;4.00;99.90
72604;DHT22;60645;56.968;24.196;2024-01-25T00:30:05;3.90;99.90
72604;DHT22;60645;56.968;24.196;2024-01-25T00:32:32;4.00;99.90
72604;DHT22;60645;56.968;24.196;2024-01-25T00:34:59;4.00;99.90
72604;DHT22;60645;56.968;24.196;2024-01-25T00:37:27;4.20;99.90
72604;DHT22;60645;56.968;24.196;2024-01-25T00:39:54;4.00;99.90
72604;DHT22;60645;56.968;24.196;2024-01-25T00:42:21;3.90;99.90
72604;DHT22;60645;56.968;24.196;2024-01-25T00:44:48;4.10;99.90
72604;DHT22;60645;56.968;24.196;2024-01-25T00:47:16;3.90;99.90
72604;DHT22;60645;56.968;24.196;2024-01-25T00:49:43;4.10;99.90
72604;DHT22;60645;56.968;24.196;2024-01-25T00:52:10;3.90;99.90
72604;DHT22;60645;56.968;24.196;2024-01-25T00:54:37;4.00;99.90
72604;DHT22;60645;56.968;24.196;2024-01-25T00:57:04;4.00;99.90
72604;DHT22;60645;56.968;24.196;2024-01-25T00:59:31;4.00;99.90
72604;DHT22;60645;56.968;24.196;2024-01-25T01:01:58;3.90;99.90
72604;DHT22;60645;56.968;24.196;2024-01-25T01:04:26;3.80;99.90
72604;DHT22;60645;56.968;24.196;2024-01-25T01:06:53;4.00;99.90
72604;DHT22;60645;56.968;24.196;2024-01-25T01:09:20;3.90;99.90
72604;DHT22;60645;56.968;24.196;2024-01-25T01:11:47;3.90;99.90
72604;DHT22;60645;56.968;24.196;2024-01-25T01:14:14;4.00;99.90
72604;DHT22;60645;56.968;24.196;2024-01-25T01:16:41;4.00;99.90
72604;DHT22;60645;56.968;24.196;2024-01-25T01:19:08;3.90;99.90
72604;DHT22;60645;56.968;24.196;2024-01-25T01:21:35;4.10;99.90
72604;DHT22;60645;56.968;24.196;2024-01-25T01:24:02;4.00;99.90
72604;DHT22;60645;56.968;24.196;2024-01-25T01:26:29;4.00;99.90
72604;DHT22;60645;56.968;24.196;2024-01-25T01:28:57;3.80;99.90
72604;DHT22;60645;56.968;24.196;2024-01-25T01:31:23;4.00;99.90
72604;DHT22;60645;56.968;24.196;2024-01-25T01:33:50;3.90;99.90
72604;DHT22;60645;56.968;24.196;2024-01-25T01:36:18;4.00;99.90
72604;DHT22;60645;56.968;24.196;2024-01-25T01:38:45;3.90;99.90
72604;DHT22;60645;56.968;24.196;2024-01-25T01:41:11;3.80;99.90
72604;DHT22;60645;56.968;24.196;2024-01-25T01:43:39;3.90;99.90
72604;DHT22;60645;56.968;24.196;2024-01-25T01:46:09;3.80;99.90
72604;DHT22;60645;56.968;24.196;2024-01-25T01:48:40;3.90;99.90
72604;DHT22;60645;56.968;24.196;2024-01-25T01:51:07;3.70;99.90
72604;DHT22;60645;56.968;24.196;2024-01-25T01:53:35;3.70;99.90
72604;DHT22;60645;56.968;24.196;2024-01-25T01:56:03;3.70;99.90
72604;DHT22;60645;56.968;24.196;2024-01-25T01:58:30;3.80;99.90
72604;DHT22;60645;56.968;24.196;2024-01-25T02:00:57;3.80;99.90
72604;DHT22;60645;56.968;24.196;2024-01-25T02:03:26;3.80;99.90
72604;DHT22;60645;56.968;24.196;2024-01-25T02:05:53;4.00;99.90
72604;DHT22;60645;56.968;24.196;2024-01-25T02:08:20;4.00;99.90
72604;DHT22;60645;56.968;24.196;2024-01-25T02:10:47;3.80;99.90
72604;DHT22;60645;56.968;24.196;2024-01-25T02:13:14;3.90;99.90
72604;DHT22;60645;56.968;24.196;2024-01-25T02:15:41;3.80;99.90
72604;DHT22;60645;56.968;24.196;2024-01-25T02:18:08;3.90;99.90
72604;DHT22;60645;56.968;24.196;2024-01-25T02:20:36;4.00;99.90
72604;DHT22;60645;56.968;24.196;2024-01-25T02:23:03;4.00;99.90
72604;DHT22;60645;56.968;24.196;2024-01-25T02:25:30;4.10;99.90
72604;DHT22;60645;56.968;24.196;2024-01-25T02:27:57;3.90;99.90
72604;DHT22;60645;56.968;24.196;2024-01-25T02:30:24;3.90;99.90
72604;DHT22;60645;56.968;24.196;2024-01-25T02:32:51;3.90;99.90
72604;DHT22;60645;56.968;24.196;2024-01-25T02:35:19;3.90;99.90
72604;DHT22;60645;56.968;24.196;2024-01-25T02:37:46;3.70;99.90
72604;DHT22;60645;56.968;24.196;2024-01-25T02:40:14;3.80;99.90
72604;DHT22;60645;56.968;24.196;2024-01-25T02:42:41;3.80;99.90
72604;DHT22;60645;56.968;24.196;2024-01-25T02:45:08;3.90;99.90
72604;DHT22;60645;56.968;24.196;2024-01-25T02:47:35;3.70;99.90
72604;DHT22;60645;56.968;24.196;2024-01-25T02:50:01;3.70;99.90
72604;DHT22;60645;56.968;24.196;2024-01-25T02:52:29;3.80;99.90
72604;DHT22;60645;56.968;24.196;2024-01-25T02:54:55;3.80;99.90
72604;DHT22;60645;56.968;24.196;2024-01-25T02:57:23;3.70;99.90
72604;DHT22;60645;56.968;24.196;2024-01-25T02:59:50;3.80;99.90
72604;DHT22;60645;56.968;24.196;2024-01-25T03:02:16;3.70;99.90
72604;DHT22;60645;56.968;24.196;2024-01-25T03:04:46;3.70;99.90
72604;DHT22;60645;56.968;24.196;2024-01-25T03:07:13;3.70;99.90
72604;DHT22;60645;56.968;24.196;2024-01-25T03:09:40;3.60;99.90
72604;DHT22;60645;56.968;24.196;2024-01-25T03:12:07;3.50;99.90
72604;DHT22;60645;56.968;24.196;2024-01-25T03:14:34;3.50;99.90
72604;DHT22;60645;56.968;24.196;2024-01-25T03:17:00;3.20;99.90
72604;DHT22;60645;56.968;24.196;2024-01-25T03:19:27;3.00;99.90
72604;DHT22;60645;56.968;24.196;2024-01-25T03:21:54;3.30;99.90
72604;DHT22;60645;56.968;24.196;2024-01-25T03:24:22;3.10;99.90
72604;DHT22;60645;56.968;24.196;2024-01-25T03:26:49;2.90;99.90
72604;DHT22;60645;56.968;24.196;2024-01-25T03:29:16;2.90;99.90
72604;DHT22;60645;56.968;24.196;2024-01-25T03:31:43;3.10;99.90
72604;DHT22;60645;56.968;24.196;2024-01-25T03:34:11;2.90;99.90
72604;DHT22;60645;56.968;24.196;2024-01-25T03:36:38;2.70;99.90
72604;DHT22;60645;56.968;24.196;2024-01-25T03:39:06;3.10;99.90
72604;DHT22;60645;56.968;24.196;2024-01-25T03:41:33;3.00;99.90
72604;DHT22;60645;56.968;24.196;2024-01-25T03:44:00;2.80;99.90
72604;DHT22;60645;56.968;24.196;2024-01-25T03:46:27;2.90;99.90
72604;DHT22;60645;56.968;24.196;2024-01-25T03:48:54;2.80;99.90
72604;DHT22;60645;56.968;24.196;2024-01-25T03:51:22;2.80;99.90
72604;DHT22;60645;56.968;24.196;2024-01-25T03:53:50;2.70;99.90
72604;DHT22;60645;56.968;24.196;2024-01-25T03:56:19;2.60;99.90
72604;DHT22;60645;56.968;24.196;2024-01-25T03:58:46;2.60;99.90
72604;DHT22;60645;56.968;24.196;2024-01-25T04:01:13;2.70;99.90
72604;DHT22;60645;56.968;24.196;2024-01-25T04:03:40;2.80;99.90
72604;DHT22;60645;56.968;24.196;2024-01-25T04:06:08;2.70;99.90
72604;DHT22;60645;56.968;24.196;2024-01-25T04:08:35;2.80;99.90
72604;DHT22;60645;56.968;24.196;2024-01-25T04:11:02;2.70;99.90
72604;DHT22;60645;56.968;24.196;2024-01-25T04:13:29;2.60;99.90
72604;DHT22;60645;56.968;24.196;2024-01-25T04:15:56;2.90;99.90
72604;DHT22;60645;56.968;24.196;2024-01-25T04:18:23;2.80;99.90
72604;DHT22;60645;56.968;24.196;2024-01-25T04:20:50;2.70;99.90
72604;DHT22;60645;56.968;24.196;2024-01-25T04:23:18;2.40;99.90
72604;DHT22;60645;56.968;24.196;2024-01-25T04:25:45;2.60;99.90
72604;DHT22;60645;56.968;24.196;2024-01-25T04:28:11;2.70;99.90
72604;DHT22;60645;56.968;24.196;2024-01-25T04:30:38;2.70;99.90
72604;DHT22;60645;56.968;24.196;2024-01-25T04:33:05;2.60;99.90
72604;DHT22;60645;56.968;24.196;2024-01-25T04:35:32;2.70;99.90
72604;DHT22;60645;56.968;24.196;2024-01-25T04:37:59;2.60;99.90
72604;DHT22;60645;56.968;24.196;2024-01-25T04:40:26;2.70;99.90
72604;DHT22;60645;56.968;24.196;2024-01-25T04:42:53;2.70;99.90
72604;DHT22;60645;56.968;24.196;2024-01-25T04:45:20;2.80;99.90
72604;DHT22;60645;56.968;24.196;2024-01-25T04:47:47;2.50;99.90
72604;DHT22;60645;56.968;24.196;2024-01-25T04:50:14;2.50;99.90
72604;DHT22;60645;56.968;24.196;2024-01-25T04:52:41;2.60;99.90
72604;DHT22;60645;56.968;24.196;2024-01-25T04:55:08;2.50;99.90
72604;DHT22;60645;56.968;24.196;2024-01-25T04:57:35;2.50;99.90
72604;DHT22;60645;56.968;24.196;2024-01-25T05:00:02;2.60;99.90
72604;DHT22;60645;56.968;24.196;2024-01-25T05:02:29;2.60;99.90
72604;DHT22;60645;56.968;24.196;2024-01-25T05:04:56;2.60;99.90
72604;DHT22;60645;56.968;24.196;2024-01-25T05:07:23;2.70;99.90
72604;DHT22;60645;56.968;24.196;2024-01-25T05:09:56;2.60;99.90
72604;DHT22;60645;56.968;24.196;2024-01-25T05:12:23;2.50;99.90
72604;DHT22;60645;56.968;24.196;2024-01-25T05:14:50;2.40;99.90
72604;DHT22;60645;56.968;24.196;2024-01-25T05:17:17;2.50;99.90
72604;DHT22;60645;56.968;24.196;2024-01-25T05:19:44;2.20;99.90
72604;DHT22;60645;56.968;24.196;2024-01-25T05:22:11;2.30;99.90
72604;DHT22;60645;56.968;24.196;2024-01-25T05:24:38;2.00;99.90
72604;DHT22;60645;56.968;24.196;2024-01-25T05:27:05;1.70;99.90
72604;DHT22;60645;56.968;24.196;2024-01-25T05:29:32;1.70;99.90
72604;DHT22;60645;56.968;24.196;2024-01-25T05:31:59;1.70;99.90
72604;DHT22;60645;56.968;24.196;2024-01-25T05:34:26;1.60;99.90
72604;DHT22;60645;56.968;24.196;2024-01-25T05:36:53;1.40;99.90
72604;DHT22;60645;56.968;24.196;2024-01-25T05:39:20;1.50;99.90
72604;DHT22;60645;56.968;24.196;2024-01-25T05:41:47;1.30;99.90
72604;DHT22;60645;56.968;24.196;2024-01-25T05:44:14;1.30;99.90
72604;DHT22;60645;56.968;24.196;2024-01-25T05:46:40;1.30;99.90
72604;DHT22;60645;56.968;24.196;2024-01-25T05:49:07;1.20;99.90
72604;DHT22;60645;56.968;24.196;2024-01-25T05:51:34;1.10;99.90
72604;DHT22;60645;56.968;24.196;2024-01-25T05:54:02;1.30;99.90
72604;DHT22;60645;56.968;24.196;2024-01-25T05:56:29;1.20;99.90
72604;DHT22;60645;56.968;24.196;2024-01-25T05:58:56;1.00;99.90
72604;DHT22;60645;56.968;24.196;2024-01-25T06:01:23;1.20;99.90
72604;DHT22;60645;56.968;24.196;2024-01-25T06:03:50;0.90;99.90
72604;DHT22;60645;56.968;24.196;2024-01-25T06:06:17;1.10;99.90
72604;DHT22;60645;56.968;24.196;2024-01-25T06:08:45;1.00;99.90
72604;DHT22;60645;56.968;24.196;2024-01-25T06:11:24;0.90;99.90
72604;DHT22;60645;56.968;24.196;2024-01-25T06:13:51;0.90;99.90
72604;DHT22;60645;56.968;24.196;2024-01-25T06:16:18;0.80;99.90
72604;DHT22;60645;56.968;24.196;2024-01-25T06:18:45;0.80;99.90
72604;DHT22;60645;56.968;24.196;2024-01-25T06:21:12;0.80;99.90
72604;DHT22;60645;56.968;24.196;2024-01-25T06:23:39;0.90;99.90
72604;DHT22;60645;56.968;24.196;2024-01-25T06:26:05;0.90;99.90
72604;DHT22;60645;56.968;24.196;2024-01-25T06:28:32;0.90;99.90
72604;DHT22;60645;56.968;24.196;2024-01-25T06:31:00;1.00;99.90
72604;DHT22;60645;56.968;24.196;2024-01-25T06:33:27;0.90;99.90
72604;DHT22;60645;56.968;24.196;2024-01-25T06:35:56;1.10;99.90
72604;DHT22;60645;56.968;24.196;2024-01-25T06:38:24;1.00;99.90
72604;DHT22;60645;56.968;24.196;2024-01-25T06:40:50;0.90;99.90
72604;DHT22;60645;56.968;24.196;2024-01-25T06:43:18;0.90;99.90
72604;DHT22;60645;56.968;24.196;2024-01-25T06:45:44;0.80;99.90
72604;DHT22;60645;56.968;24.196;2024-01-25T06:48:12;0.90;99.90
72604;DHT22;60645;56.968;24.196;2024-01-25T06:50:39;0.90;99.90
72604;DHT22;60645;56.968;24.196;2024-01-25T06:53:06;0.80;99.90
72604;DHT22;60645;56.968;24.196;2024-01-25T06:55:33;0.80;99.90
72604;DHT22;60645;56.968;24.196;2024-01-25T06:58:00;0.80;99.90
72604;DHT22;60645;56.968;24.196;2024-01-25T07:00:27;0.80;99.90
72604;DHT22;60645;56.968;24.196;2024-01-25T07:02:54;0.70;99.90
72604;DHT22;60645;56.968;24.196;2024-01-25T07:05:21;1.10;99.90
72604;DHT22;60645;56.968;24.196;2024-01-25T07:07:48;0.80;99.90
72604;DHT22;60645;56.968;24.196;2024-01-25T07:10:15;0.70;99.90
72604;DHT22;60645;56.968;24.196;2024-01-25T07:12:43;0.90;99.90
72604;DHT22;60645;56.968;24.196;2024-01-25T07:15:09;0.90;99.90
72604;DHT22;60645;56.968;24.196;2024-01-25T07:17:36;0.80;99.90
72604;DHT22;60645;56.968;24.196;2024-01-25T07:20:03;0.70;99.90
72604;DHT22;60645;56.968;24.196;2024-01-25T07:22:31;0.80;99.90
72604;DHT22;60645;56.968;24.196;2024-01-25T07:24:57;0.70;99.90
72604;DHT22;60645;56.968;24.196;2024-01-25T07:27:24;0.70;99.90
72604;DHT22;60645;56.968;24.196;2024-01-25T07:29:51;0.90;99.90
72604;DHT22;60645;56.968;24.196;2024-01-25T07:32:18;0.90;99.90
72604;DHT22;60645;56.968;24.196;2024-01-25T07:34:45;0.60;99.90
72604;DHT22;60645;56.968;24.196;2024-01-25T07:37:12;0.60;99.90
72604;DHT22;60645;56.968;24.196;2024-01-25T07:39:40;0.80;99.90
72604;DHT22;60645;56.968;24.196;2024-01-25T07:42:07;0.80;99.90
72604;DHT22;60645;56.968;24.196;2024-01-25T07:44:34;0.60;99.90
72604;DHT22;60645;56.968;24.196;2024-01-25T07:47:01;0.60;99.90
72604;DHT22;60645;56.968;24.196;2024-01-25T07:49:29;0.50;99.90
72604;DHT22;60645;56.968;24.196;2024-01-25T07:51:56;0.90;99.90
72604;DHT22;60645;56.968;24.196;2024-01-25T07:54:23;0.70;99.90
72604;DHT22;60645;56.968;24.196;2024-01-25T07:56:50;0.80;99.90
72604;DHT22;60645;56.968;24.196;2024-01-25T07:59:17;0.90;99.90
72604;DHT22;60645;56.968;24.196;2024-01-25T08:01:44;0.80;99.90
72604;DHT22;60645;56.968;24.196;2024-01-25T08:04:11;0.90;99.90
72604;DHT22;60645;56.968;24.196;2024-01-25T08:06:38;0.90;99.90
72604;DHT22;60645;56.968;24.196;2024-01-25T08:09:05;1.00;99.90
72604;DHT22;60645;56.968;24.196;2024-01-25T08:11:32;0.90;99.90
72604;DHT22;60645;56.968;24.196;2024-01-25T08:13:59;0.90;99.90
72604;DHT22;60645;56.968;24.196;2024-01-25T08:16:27;0.80;99.90
72604;DHT22;60645;56.968;24.196;2024-01-25T08:18:54;1.00;99.90
72604;DHT22;60645;56.968;24.196;2024-01-25T08:21:21;0.80;99.90
72604;DHT22;60645;56.968;24.196;2024-01-25T08:23:48;0.80;99.90
72604;DHT22;60645;56.968;24.196;2024-01-25T08:26:15;0.90;99.90
72604;DHT22;60645;56.968;24.196;2024-01-25T08:28:42;1.00;99.90
72604;DHT22;60645;56.968;24.196;2024-01-25T08:31:12;1.00;99.90
72604;DHT22;60645;56.968;24.196;2024-01-25T08:33:39;1.00;99.90
72604;DHT22;60645;56.968;24.196;2024-01-25T08:36:16;1.00;99.90
72604;DHT22;60645;56.968;24.196;2024-01-25T08:38:43;1.20;99.90
72604;DHT22;60645;56.968;24.196;2024-01-25T08:41:10;1.10;99.90
72604;DHT22;60645;56.968;24.196;2024-01-25T08:43:37;0.80;99.90
72604;DHT22;60645;56.968;24.196;2024-01-25T08:46:07;1.20;99.90
72604;DHT22;60645;56.968;24.196;2024-01-25T08:48:34;1.10;99.90
72604;DHT22;60645;56.968;24.196;2024-01-25T08:51:02;1.20;99.90
72604;DHT22;60645;56.968;24.196;2024-01-25T08:53:29;1.30;99.90
72604;DHT22;60645;56.968;24.196;2024-01-25T08:55:55;1.20;99.90
72604;DHT22;60645;56.968;24.196;2024-01-25T08:58:22;1.20;99.90
72604;DHT22;60645;56.968;24.196;2024-01-25T09:00:49;1.00;99.90
72604;DHT22;60645;56.968;24.196;2024-01-25T09:03:16;1.10;99.90
72604;DHT22;60645;56.968;24.196;2024-01-25T09:05:43;1.20;99.90
72604;DHT22;60645;56.968;24.196;2024-01-25T09:08:13;1.20;99.90
72604;DHT22;60645;56.968;24.196;2024-01-25T09:10:41;1.10;99.90
72604;DHT22;60645;56.968;24.196;2024-01-25T09:13:08;1.30;99.90
72604;DHT22;60645;56.968;24.196;2024-01-25T09:15:36;1.30;99.90
72604;DHT22;60645;56.968;24.196;2024-01-25T09:18:03;1.40;99.90
72604;DHT22;60645;56.968;24.196;2024-01-25T09:20:30;1.40;99.90
72604;DHT22;60645;56.968;24.196;2024-01-25T09:22:57;1.30;99.90
72604;DHT22;60645;56.968;24.196;2024-01-25T09:25:24;1.20;99.90
72604;DHT22;60645;56.968;24.196;2024-01-25T09:27:51;1.40;99.90
72604;DHT22;60645;56.968;24.196;2024-01-25T09:30:20;1.40;99.90
72604;DHT22;60645;56.968;24.196;2024-01-25T09:32:47;1.20;99.90
72604;DHT22;60645;56.968;24.196;2024-01-25T09:35:15;1.40;99.90
72604;DHT22;60645;56.968;24.196;2024-01-25T09:37:42;1.20;99.90
72604;DHT22;60645;56.968;24.196;2024-01-25T09:40:09;1.10;99.90
72604;DHT22;60645;56.968;24.196;2024-01-25T09:42:38;1.50;99.90
72604;DHT22;60645;56.968;24.196;2024-01-25T09:45:07;1.20;99.90
72604;DHT22;60645;56.968;24.196;2024-01-25T09:47:35;1.40;99.90
72604;DHT22;60645;56.968;24.196;2024-01-25T09:50:01;1.30;99.90
72604;DHT22;60645;56.968;24.196;2024-01-25T09:52:29;1.20;99.90
72604;DHT22;60645;56.968;24.196;2024-01-25T09:54:56;1.20;99.90
72604;DHT22;60645;56.968;24.196;2024-01-25T09:57:24;1.30;99.90
72604;DHT22;60645;56.968;24.196;2024-01-25T09:59:50;1.40;99.90
72604;DHT22;60645;56.968;24.196;2024-01-25T10:02:17;1.50;99.90
72604;DHT22;60645;56.968;24.196;2024-01-25T10:04:51;1.50;99.90
72604;DHT22;60645;56.968;24.196;2024-01-25T10:07:39;1.60;99.90
72604;DHT22;60645;56.968;24.196;2024-01-25T10:10:07;1.50;99.90
72604;DHT22;60645;56.968;24.196;2024-01-25T10:12:34;1.40;99.90
72604;DHT22;60645;56.968;24.196;2024-01-25T10:15:02;1.50;99.90
72604;DHT22;60645;56.968;24.196;2024-01-25T10:17:29;1.50;99.90
72604;DHT22;60645;56.968;24.196;2024-01-25T10:20:16;1.40;99.90
72604;DHT22;60645;56.968;24.196;2024-01-25T10:22:44;1.50;99.90
72604;DHT22;60645;56.968;24.196;2024-01-25T10:25:14;1.20;99.90
72604;DHT22;60645;56.968;24.196;2024-01-25T10:27:41;1.20;99.90
72604;DHT22;60645;56.968;24.196;2024-01-25T10:30:09;1.30;99.90
72604;DHT22;60645;56.968;24.196;2024-01-25T10:32:36;1.30;99.90
72604;DHT22;60645;56.968;24.196;2024-01-25T10:35:04;1.30;99.90
72604;DHT22;60645;56.968;24.196;2024-01-25T10:37:32;1.20;99.90
72604;DHT22;60645;56.968;24.196;2024-01-25T10:40:00;1.20;99.90
72604;DHT22;60645;56.968;24.196;2024-01-25T10:42:28;1.30;99.90
72604;DHT22;60645;56.968;24.196;2024-01-25T10:44:55;1.50;99.90
72604;DHT22;60645;56.968;24.196;2024-01-25T10:47:23;1.40;99.90
72604;DHT22;60645;56.968;24.196;2024-01-25T10:49:51;1.40;99.90
72604;DHT22;60645;56.968;24.196;2024-01-25T10:52:19;1.30;99.90
72604;DHT22;60645;56.968;24.196;2024-01-25T10:54:47;1.40;99.90
72604;DHT22;60645;56.968;24.196;2024-01-25T10:57:14;1.50;99.90
72604;DHT22;60645;56.968;24.196;2024-01-25T10:59:41;1.30;99.90
72604;DHT22;60645;56.968;24.196;2024-01-25T11:02:07;1.40;99.90
72604;DHT22;60645;56.968;24.196;2024-01-25T11:04:36;1.30;99.90
72604;DHT22;60645;56.968;24.196;2024-01-25T11:07:07;1.20;99.90
72604;DHT22;60645;56.968;24.196;2024-01-25T11:09:35;1.40;99.90
72604;DHT22;60645;56.968;24.196;2024-01-25T11:12:11;1.40;99.90
72604;DHT22;60645;56.968;24.196;2024-01-25T11:14:40;1.30;99.90
72604;DHT22;60645;56.968;24.196;2024-01-25T11:17:19;1.20;99.90
72604;DHT22;60645;56.968;24.196;2024-01-25T11:19:48;1.30;99.90
72604;DHT22;60645;56.968;24.196;2024-01-25T11:22:15;1.30;99.90
72604;DHT22;60645;56.968;24.196;2024-01-25T11:24:42;1.30;99.90
72604;DHT22;60645;56.968;24.196;2024-01-25T11:27:12;1.40;99.90
72604;DHT22;60645;56.968;24.196;2024-01-25T11:29:40;1.40;99.90
72604;DHT22;60645;56.968;24.196;2024-01-25T11:32:10;1.10;99.90
72604;DHT22;60645;56.968;24.196;2024-01-25T11:34:36;1.40;99.90
72604;DHT22;60645;56.968;24.196;2024-01-25T11:37:03;1.10;99.90
72604;DHT22;60645;56.968;24.196;2024-01-25T11:39:32;1.30;99.90
72604;DHT22;60645;56.968;24.196;2024-01-25T11:41:59;1.00;99.90
72604;DHT22;60645;56.968;24.196;2024-01-25T11:44:25;1.20;99.90
72604;DHT22;60645;56.968;24.196;2024-01-25T11:46:55;1.30;99.90
72604;DHT22;60645;56.968;24.196;2024-01-25T11:49:23;1.10;99.90
72604;DHT22;60645;56.968;24.196;2024-01-25T11:51:50;1.10;99.90
72604;DHT22;60645;56.968;24.196;2024-01-25T11:54:18;1.20;99.90
72604;DHT22;60645;56.968;24.196;2024-01-25T11:56:44;1.20;99.90
72604;DHT22;60645;56.968;24.196;2024-01-25T11:59:12;1.20;99.90
72604;DHT22;60645;56.968;24.196;2024-01-25T12:01:39;1.30;99.90
72604;DHT22;60645;56.968;24.196;2024-01-25T12:04:07;1.30;99.90
72604;DHT22;60645;56.968;24.196;2024-01-25T12:06:35;1.20;99.90
72604;DHT22;60645;56.968;24.196;2024-01-25T12:09:09;1.40;99.90
72604;DHT22;60645;56.968;24.196;2024-01-25T12:11:36;1.10;99.90
72604;DHT22;60645;56.968;24.196;2024-01-25T12:14:03;1.20;99.90
72604;DHT22;60645;56.968;24.196;2024-01-25T12:16:31;1.40;99.90
72604;DHT22;60645;56.968;24.196;2024-01-25T12:19:03;1.20;99.90
72604;DHT22;60645;56.968;24.196;2024-01-25T12:21:32;1.40;99.90
72604;DHT22;60645;56.968;24.196;2024-01-25T12:23:59;1.20;99.90
72604;DHT22;60645;56.968;24.196;2024-01-25T12:26:26;1.30;99.90
72604;DHT22;60645;56.968;24.196;2024-01-25T12:28:53;1.30;99.90
72604;DHT22;60645;56.968;24.196;2024-01-25T12:31:20;1.20;99.90
72604;DHT22;60645;56.968;24.196;2024-01-25T12:33:47;1.40;99.90
72604;DHT22;60645;56.968;24.196;2024-01-25T12:36:14;1.30;99.90
72604;DHT22;60645;56.968;24.196;2024-01-25T12:38:41;1.20;99.90
72604;DHT22;60645;56.968;24.196;2024-01-25T12:41:08;1.20;99.90
72604;DHT22;60645;56.968;24.196;2024-01-25T12:43:35;1.40;99.90
72604;DHT22;60645;56.968;24.196;2024-01-25T12:46:02;1.20;99.90
72604;DHT22;60645;56.968;24.196;2024-01-25T12:48:47;1.30;99.90
72604;DHT22;60645;56.968;24.196;2024-01-25T12:51:14;1.20;99.90
72604;DHT22;60645;56.968;24.196;2024-01-25T12:53:42;1.30;99.90
72604;DHT22;60645;56.968;24.196;2024-01-25T12:56:10;1.10;99.90
72604;DHT22;60645;56.968;24.196;2024-01-25T12:58:37;1.00;99.90
72604;DHT22;60645;56.968;24.196;2024-01-25T13:01:04;1.00;99.90
72604;DHT22;60645;56.968;24.196;2024-01-25T13:03:31;1.30;99.90
72604;DHT22;60645;56.968;24.196;2024-01-25T13:05:58;1.30;99.90
72604;DHT22;60645;56.968;24.196;2024-01-25T13:08:26;1.20;99.90
72604;DHT22;60645;56.968;24.196;2024-01-25T13:10:52;1.30;99.90
72604;DHT22;60645;56.968;24.196;2024-01-25T13:13:19;1.40;99.90
72604;DHT22;60645;56.968;24.196;2024-01-25T13:15:47;1.20;99.90
72604;DHT22;60645;56.968;24.196;2024-01-25T13:18:14;1.10;99.90
72604;DHT22;60645;56.968;24.196;2024-01-25T13:20:41;1.00;99.90
72604;DHT22;60645;56.968;24.196;2024-01-25T13:23:07;1.10;99.90
72604;DHT22;60645;56.968;24.196;2024-01-25T13:25:34;1.20;99.90
72604;DHT22;60645;56.968;24.196;2024-01-25T13:28:01;1.20;99.90
72604;DHT22;60645;56.968;24.196;2024-01-25T13:30:29;1.20;99.90
72604;DHT22;60645;56.968;24.196;2024-01-25T13:32:56;1.20;99.90
72604;DHT22;60645;56.968;24.196;2024-01-25T13:35:23;1.20;99.90
72604;DHT22;60645;56.968;24.196;2024-01-25T13:37:50;1.30;99.90
72604;DHT22;60645;56.968;24.196;2024-01-25T13:40:17;1.10;99.90
72604;DHT22;60645;56.968;24.196;2024-01-25T13:42:47;1.30;99.90
72604;DHT22;60645;56.968;24.196;2024-01-25T13:45:14;1.10;99.90
72604;DHT22;60645;56.968;24.196;2024-01-25T13:47:41;1.30;99.90
72604;DHT22;60645;56.968;24.196;2024-01-25T13:50:08;1.20;99.90
72604;DHT22;60645;56.968;24.196;2024-01-25T13:52:35;1.30;99.90
72604;DHT22;60645;56.968;24.196;2024-01-25T13:55:02;1.20;99.90
72604;DHT22;60645;56.968;24.196;2024-01-25T13:57:29;1.30;99.90
72604;DHT22;60645;56.968;24.196;2024-01-25T13:59:56;1.20;99.90
72604;DHT22;60645;56.968;24.196;2024-01-25T14:02:23;1.30;99.90
72604;DHT22;60645;56.968;24.196;2024-01-25T14:04:50;1.30;99.90
72604;DHT22;60645;56.968;24.196;2024-01-25T14:07:18;1.20;99.90
72604;DHT22;60645;56.968;24.196;2024-01-25T14:09:45;1.30;99.90
72604;DHT22;60645;56.968;24.196;2024-01-25T14:12:16;1.20;99.90
72604;DHT22;60645;56.968;24.196;2024-01-25T14:14:43;1.20;99.90
72604;DHT22;60645;56.968;24.196;2024-01-25T14:17:10;1.30;99.90
72604;DHT22;60645;56.968;24.196;2024-01-25T14:19:36;1.30;99.90
72604;DHT22;60645;56.968;24.196;2024-01-25T14:22:04;1.20;99.90
72604;DHT22;60645;56.968;24.196;2024-01-25T14:24:50;1.40;99.90
72604;DHT22;60645;56.968;24.196;2024-01-25T14:27:17;1.20;99.90
72604;DHT22;60645;56.968;24.196;2024-01-25T14:29:44;1.30;99.90
72604;DHT22;60645;56.968;24.196;2024-01-25T14:32:11;1.10;99.90
72604;DHT22;60645;56.968;24.196;2024-01-25T14:34:39;1.30;99.90
72604;DHT22;60645;56.968;24.196;2024-01-25T14:37:07;1.30;99.90
72604;DHT22;60645;56.968;24.196;2024-01-25T14:39:36;1.30;99.90
72604;DHT22;60645;56.968;24.196;2024-01-25T14:42:11;1.20;99.90
72604;DHT22;60645;56.968;24.196;2024-01-25T14:44:42;1.20;99.90
72604;DHT22;60645;56.968;24.196;2024-01-25T14:47:09;1.20;99.90
72604;DHT22;60645;56.968;24.196;2024-01-25T14:49:36;1.30;99.90
72604;DHT22;60645;56.968;24.196;2024-01-25T14:52:03;1.10;99.90
72604;DHT22;60645;56.968;24.196;2024-01-25T14:54:30;1.30;99.90
72604;DHT22;60645;56.968;24.196;2024-01-25T14:56:58;1.30;99.90
72604;DHT22;60645;56.968;24.196;2024-01-25T14:59:25;1.30;99.90
72604;DHT22;60645;56.968;24.196;2024-01-25T15:01:52;1.30;99.90
72604;DHT22;60645;56.968;24.196;2024-01-25T15:04:19;1.40;99.90
72604;DHT22;60645;56.968;24.196;2024-01-25T15:06:46;1.50;99.90
72604;DHT22;60645;56.968;24.196;2024-01-25T15:09:13;1.30;99.90
72604;DHT22;60645;56.968;24.196;2024-01-25T15:11:40;1.40;99.90
72604;DHT22;60645;56.968;24.196;2024-01-25T15:14:07;1.30;99.90
72604;DHT22;60645;56.968;24.196;2024-01-25T15:16:37;1.40;99.90
72604;DHT22;60645;56.968;24.196;2024-01-25T15:19:04;1.40;99.90
72604;DHT22;60645;56.968;24.196;2024-01-25T15:21:32;1.40;99.90
72604;DHT22;60645;56.968;24.196;2024-01-25T15:24:02;1.20;99.90
72604;DHT22;60645;56.968;24.196;2024-01-25T15:26:29;1.30;99.90
72604;DHT22;60645;56.968;24.196;2024-01-25T15:28:56;1.10;99.90
72604;DHT22;60645;56.968;24.196;2024-01-25T15:31:23;1.20;99.90